• NOTAM LFQA

     30/04 08:29Z - 30/10/21 11:59Z
    E) DISTANCES DECLAREES MODIFIEES PISTE REVETUE 07 : TORA=925M TODA=985M ASDA=925M LDA=895M FIN DE TODA : 185M AVANT EXTREMITE PHYSIQUE DE PISTE FIN DE LDA : 60M AVANT EXTREMITE PHYSIQUE DE PISTE MODIFICATION CAUSE PRESENCE OBSTACLES CONSTITUES PAR LES ROUTES D944 ET D931.

     30/04 08:31Z - 30/10/21 11:59Z
    E) DISTANCES DECLAREES PISTE REVETUE 25 MODIFIEES: TORA 955M TODA 1005M ASDA 955M LDA 767M FIN DE TODA 155M AVANT L'EXTREMITE PHYSIQUE DE PISTE FIN DE LDA 60M AVANT L'EXTREMITE PHYSIQUE DE PISTE MODIFICATION CAUSE PRESENCE OBSTACLES CONSTITUES PAR LES ROUTES D944 ET D931.

     30/04 08:45Z - 30/10/21 11:59Z
    E) TWY PARALLELE ENTRE LA SORTIE SUD-EST DU PARKING TOUR ET LE POINT D'ATTENTE 25 INTERDIT AUX AERONEFS DONT LA LARGEUR DE TRAIN D'ATTERRISSAGE EST SUPERIEURE OU EGALE A 4.5M

     30/04 01:52Z - 30/10/21 11:59Z
    E) BALISAGE LUMINEUX SUR UNE SEULE BOUCLE. ARRIVEES IFR PREVOIR UN DEGAGEMENT VERS UN AD ACCESSIBLE ET CONFORME

     Durée permanente depuis 18/08/21 08:01Z
    E) HORAIRES SERVICE GRF : HORAIRES ATS REF : AD 2.3.12

     07/10 12:00Z - 20/10/21 11:59Z
    E) NOTAM TRIGGER - AMDT AIP AIRAC PERM 10/21 WEF 07 OCT 2021. MODIFICATION FREQ AFIS, VAR, RENOMMAGE RNP

     15/10 07:00Z - 31/10/21 04:54Z
    D) 15-24 27 30 0700-1700, 31 0800-1654 E) RFFS DECLASSE NIVEAU 1

     Durée permanente depuis 05/07/21 07:00Z
    E) CREATION D'UNE ACTIVITE PARACHUTAGE SUR L'AERODROME DE REIMS PRUNAY(51): PSN : 491235N 0040916E HORAIRES : PRUNAY FIS SKED ACTIVITE SELON PROTOCOLE. ACTIVITE REELLE CONNUE DE PARIS INFO, SEINE INFO ET PRUNAY INFO. REF ENR 5.5 F) SFC











  • PHOTOS SATELLITE

CARTE TEMSI

CARTE WINTEM

  • Vent au sol

  • Vent à 2000ft

  • ANIMATION RADAR

  • METAR/TAF LFQA (REIMS / Prunay)

    LFQA 172200Z AUTO 10003KT 7000 NSC 05/04 Q1021

    METAR/TAF LFOK (CHALONS / Vatry)

    LFOK 172200Z AUTO 12009KT CAVOK 07/05 Q1021 NOSIG

    TAF LFOK 171700Z 1718/1818 VRB03KT CAVOK PROB40 1801/1809 0300 FG VV/// BECMG 1810/1812 18010KT